Time;durP1;ratioP1;P1;durP2;ratioP2;P2;SDS_P1;SDS_P2;PMS_P1;PMS_P2;Temp;Humidity;BMP_temperature;BMP_pressure;BME280_temperature;BME280_humidity;BME280_pressure;Samples;Min_cycle;Max_cycle;Signal;HPM_P1;HPM_P2
2023/12/12 00:00:06;;;;;;;26.33;16.17;;;5.30;96.90;;;;;;4977742;28;20238;-87
2023/12/12 00:02:32;;;;;;;33.20;19.67;;;5.30;96.90;;;;;;4995333;28;20178;-87
2023/12/12 00:04:58;;;;;;;32.97;21.27;;;5.30;96.90;;;;;;4995137;28;20174;-87
2023/12/12 00:07:23;;;;;;;31.73;14.03;;;5.30;96.90;;;;;;4995098;28;20200;-87
2023/12/12 00:09:49;;;;;;;34.40;14.60;;;5.30;96.90;;;;;;4977589;28;20293;-87
2023/12/12 00:12:14;;;;;;;41.43;21.40;;;5.30;96.90;;;;;;4993769;28;20174;-87
2023/12/12 00:14:40;;;;;;;40.80;19.97;;;5.30;96.90;;;;;;4995161;28;20216;-87
2023/12/12 00:17:05;;;;;;;36.53;20.83;;;5.30;96.90;;;;;;4995131;28;20174;-87
2023/12/12 00:19:31;;;;;;;39.17;14.70;;;5.30;96.90;;;;;;4977194;28;20763;-87
2023/12/12 00:21:56;;;;;;;45.30;15.30;;;5.30;96.90;;;;;;4994862;28;20613;-87
2023/12/12 00:24:22;;;;;;;34.13;14.17;;;5.30;96.90;;;;;;4977435;28;20264;-88
2023/12/12 00:26:47;;;;;;;28.87;13.43;;;5.40;96.90;;;;;;4993249;28;20202;-87
2023/12/12 00:29:13;;;;;;;33.67;14.50;;;5.40;96.90;;;;;;4994669;28;20549;-87
2023/12/12 00:31:39;;;;;;;28.10;14.07;;;5.40;96.90;;;;;;4994789;28;20252;-87
2023/12/12 00:34:04;;;;;;;33.90;15.17;;;5.40;96.90;;;;;;4977250;28;20678;-87
2023/12/12 00:36:30;;;;;;;40.10;15.57;;;5.30;96.90;;;;;;4977071;28;20181;-87
2023/12/12 00:38:55;;;;;;;41.97;14.90;;;5.30;96.90;;;;;;4977223;28;20225;-86
2023/12/12 00:41:31;;;;;;;49.40;16.30;;;5.30;96.90;;;;;;4994487;28;20181;-87
2023/12/12 00:43:57;;;;;;;52.43;15.63;;;5.30;97.00;;;;;;4993737;28;20158;-87
2023/12/12 00:46:22;;;;;;;49.17;15.50;;;5.30;97.00;;;;;;4994326;28;20252;-87
2023/12/12 00:48:47;;;;;;;54.17;15.73;;;5.30;97.00;;;;;;4994362;28;20674;-87
2023/12/12 00:51:13;;;;;;;53.13;19.33;;;5.30;97.00;;;;;;4994550;28;20182;-87
2023/12/12 00:53:39;;;;;;;52.40;18.87;;;5.30;97.00;;;;;;4994356;28;20249;-87
2023/12/12 00:56:04;;;;;;;77.10;21.13;;;5.30;97.00;;;;;;4994629;28;20176;-87
2023/12/12 00:58:30;;;;;;;87.20;23.13;;;5.30;97.00;;;;;;4976930;28;20236;-87
2023/12/12 01:00:55;;;;;;;83.87;23.23;;;5.30;97.10;;;;;;4994615;28;20649;-87
2023/12/12 01:03:21;;;;;;;89.37;24.43;;;5.30;97.10;;;;;;4994216;28;20331;-87
2023/12/12 01:05:46;;;;;;;92.77;25.17;;;5.30;97.10;;;;;;4977308;28;20185;-87
2023/12/12 01:08:12;;;;;;;96.93;23.50;;;5.30;97.10;;;;;;4993055;28;20591;-87
2023/12/12 01:10:37;;;;;;;82.00;25.77;;;5.30;97.10;;;;;;4976544;28;20217;-87
2023/12/12 01:13:04;;;;;;;87.90;27.63;;;5.40;97.10;;;;;;4976578;28;20178;-87
2023/12/12 01:15:29;;;;;;;98.20;30.87;;;5.40;97.10;;;;;;4993999;28;20174;-87
2023/12/12 01:17:55;;;;;;;88.20;30.10;;;5.40;97.20;;;;;;4994080;28;20566;-87
2023/12/12 01:20:21;;;;;;;91.37;31.10;;;5.40;97.20;;;;;;4976661;28;20209;-87
2023/12/12 01:22:46;;;;;;;72.17;27.70;;;5.40;97.20;;;;;;4994088;28;20184;-87
2023/12/12 01:25:12;;;;;;;72.70;26.50;;;5.40;97.20;;;;;;4992589;28;20205;-87
2023/12/12 01:27:37;;;;;;;64.10;25.60;;;5.50;97.20;;;;;;4976505;28;20216;-87
2023/12/12 01:30:03;;;;;;;75.23;20.83;;;5.50;97.20;;;;;;4992644;28;20202;-87
2023/12/12 01:32:29;;;;;;;54.03;20.53;;;5.60;97.20;;;;;;4993880;28;20174;-88
2023/12/12 01:34:54;;;;;;;70.80;26.77;;;5.50;97.20;;;;;;4994123;28;20225;-87
2023/12/12 01:37:20;;;;;;;72.77;28.10;;;5.60;97.20;;;;;;4994129;28;20657;-87
2023/12/12 01:39:45;;;;;;;71.00;30.07;;;5.50;97.20;;;;;;4993909;28;20202;-87
2023/12/12 01:42:11;;;;;;;78.60;23.50;;;5.60;97.20;;;;;;4994873;28;20189;-87
2023/12/12 01:44:37;;;;;;;73.13;22.73;;;5.50;97.20;;;;;;4976414;28;20174;-87
2023/12/12 01:47:03;;;;;;;84.03;30.07;;;5.60;97.20;;;;;;4994190;28;20210;-87
2023/12/12 01:49:29;;;;;;;84.13;29.27;;;5.60;97.20;;;;;;4976073;28;20202;-87
2023/12/12 01:51:54;;;;;;;104.67;31.03;;;5.60;97.20;;;;;;4993711;28;20642;-87
2023/12/12 01:54:20;;;;;;;73.37;22.57;;;5.60;97.20;;;;;;4995225;28;20264;-87
2023/12/12 01:56:49;;;;;;;72.90;23.10;;;5.60;97.20;;;;;;4996265;28;20182;-88
2023/12/12 01:59:15;;;;;;;111.40;29.10;;;5.70;97.20;;;;;;4980184;28;20209;-87
2023/12/12 02:01:41;;;;;;;109.90;25.90;;;5.60;97.20;;;;;;4980129;28;20597;-87
2023/12/12 02:04:07;;;;;;;146.60;27.77;;;5.60;97.20;;;;;;4998366;28;20178;-87
2023/12/12 02:06:33;;;;;;;218.33;30.93;;;5.60;97.20;;;;;;4997930;28;20206;-87
2023/12/12 02:08:59;;;;;;;176.80;30.60;;;5.60;97.20;;;;;;4979694;28;20245;-87
2023/12/12 02:11:25;;;;;;;127.07;28.47;;;5.60;97.20;;;;;;4979702;28;20217;-87
2023/12/12 02:13:50;;;;;;;157.77;29.43;;;5.60;97.20;;;;;;4979915;28;20182;-87
2023/12/12 02:16:17;;;;;;;218.63;30.83;;;5.60;97.30;;;;;;4996072;28;20217;-87
2023/12/12 02:18:43;;;;;;;202.50;32.00;;;5.60;97.20;;;;;;4980083;28;20300;-87
2023/12/12 02:21:08;;;;;;;159.67;29.67;;;5.60;97.30;;;;;;4979489;28;20256;-87
2023/12/12 02:23:34;;;;;;;156.30;29.23;;;5.60;97.30;;;;;;4996900;28;20634;-87
2023/12/12 02:26:01;;;;;;;140.70;37.40;;;5.60;97.30;;;;;;4979565;28;20185;-87
2023/12/12 02:28:27;;;;;;;313.83;42.20;;;5.60;97.20;;;;;;4979861;28;20210;-87
2023/12/12 02:30:54;;;;;;;287.10;41.97;;;5.60;97.30;;;;;;4979613;28;20593;-88
2023/12/12 02:33:20;;;;;;;179.87;37.47;;;5.60;97.30;;;;;;4980226;28;20178;-87
2023/12/12 02:35:45;;;;;;;194.27;35.70;;;5.50;97.30;;;;;;4979631;28;20551;-87
2023/12/12 02:38:13;;;;;;;194.23;35.27;;;5.60;97.30;;;;;;4979371;28;20181;-87
2023/12/12 02:40:39;;;;;;;420.77;44.77;;;5.60;97.30;;;;;;4979079;28;20209;-87
2023/12/12 02:43:04;;;;;;;289.33;39.77;;;5.60;97.30;;;;;;4979695;28;20182;-89
2023/12/12 02:45:30;;;;;;;240.23;38.50;;;5.60;97.30;;;;;;4996822;28;20179;-87
2023/12/12 02:47:56;;;;;;;203.73;38.17;;;5.60;97.30;;;;;;4979174;28;20212;-87
2023/12/12 02:50:21;;;;;;;321.57;39.90;;;5.70;97.30;;;;;;4978943;28;20200;-87
2023/12/12 02:52:47;;;;;;;267.47;40.07;;;5.70;97.30;;;;;;4979257;28;20649;-87
2023/12/12 02:55:12;;;;;;;187.47;35.40;;;5.70;97.30;;;;;;4995269;28;20174;-88
2023/12/12 02:57:38;;;;;;;257.23;39.23;;;5.70;97.30;;;;;;4997678;28;20185;-87
2023/12/12 03:00:05;;;;;;;289.93;40.70;;;5.60;97.30;;;;;;4978993;28;20201;-87
2023/12/12 03:02:32;;;;;;;257.60;39.60;;;5.60;97.30;;;;;;4979311;28;20677;-87
2023/12/12 03:04:58;;;;;;;249.07;40.27;;;5.70;97.30;;;;;;4978541;28;20189;-86
2023/12/12 03:07:23;;;;;;;110.37;36.70;;;5.70;97.30;;;;;;4978151;28;20202;-87
2023/12/12 03:09:49;;;;;;;103.53;28.70;;;5.70;97.30;;;;;;4978623;28;20698;-87
2023/12/12 03:12:15;;;;;;;259.10;31.60;;;5.70;97.30;;;;;;4978475;28;20189;-87
2023/12/12 03:14:40;;;;;;;323.03;41.40;;;5.70;97.30;;;;;;4978532;28;20713;-87
2023/12/12 03:17:06;;;;;;;366.27;44.03;;;5.80;97.40;;;;;;4978504;28;20606;-87
2023/12/12 03:19:32;;;;;;;99.67;37.60;;;5.70;97.30;;;;;;4978901;28;20202;-88
2023/12/12 03:21:57;;;;;;;293.93;34.80;;;5.70;97.30;;;;;;4996233;28;20257;-87
2023/12/12 03:24:23;;;;;;;105.60;27.27;;;5.70;97.30;;;;;;4978450;28;20653;-87
2023/12/12 03:26:48;;;;;;;145.23;36.90;;;5.70;97.40;;;;;;4995805;28;20653;-86
2023/12/12 03:29:14;;;;;;;91.13;36.17;;;5.80;97.40;;;;;;4978306;28;20288;-87
2023/12/12 03:31:39;;;;;;;92.00;35.50;;;5.80;97.40;;;;;;4978404;28;20559;-88
2023/12/12 03:34:05;;;;;;;94.73;28.23;;;5.70;97.40;;;;;;4978297;28;20185;-87
2023/12/12 03:36:31;;;;;;;253.77;32.60;;;5.80;97.40;;;;;;4995530;28;20634;-88
2023/12/12 03:38:57;;;;;;;116.80;27.80;;;5.80;97.40;;;;;;4995798;28;20229;-88
2023/12/12 03:41:25;;;;;;;221.97;32.30;;;5.70;97.30;;;;;;4995634;28;20181;-87
2023/12/12 03:43:51;;;;;;;131.30;29.80;;;5.70;97.30;;;;;;4978177;28;20178;-87
2023/12/12 03:46:18;;;;;;;213.27;31.17;;;5.70;97.30;;;;;;4977795;28;20178;-87
2023/12/12 03:48:44;;;;;;;82.23;30.67;;;5.80;97.40;;;;;;4978660;28;20209;-87
2023/12/12 03:51:10;;;;;;;86.20;28.83;;;5.80;97.40;;;;;;4995779;28;20222;-87
2023/12/12 03:53:36;;;;;;;88.53;29.30;;;5.80;97.30;;;;;;4977776;28;20178;-87
2023/12/12 03:56:03;;;;;;;259.10;35.73;;;5.80;97.40;;;;;;4995590;28;20261;-87
2023/12/12 03:58:28;;;;;;;113.80;30.40;;;5.70;97.30;;;;;;4978337;28;20178;-87
2023/12/12 04:00:54;;;;;;;180.53;34.07;;;5.70;97.40;;;;;;4977929;28;20249;-87
2023/12/12 04:03:19;;;;;;;74.03;29.53;;;5.80;97.40;;;;;;4977659;28;20189;-86
2023/12/12 04:05:45;;;;;;;80.03;39.77;;;5.80;97.40;;;;;;4994102;28;20193;-87
2023/12/12 04:08:10;;;;;;;100.53;41.37;;;5.80;97.40;;;;;;4993572;28;20220;-87
2023/12/12 04:10:36;;;;;;;79.43;40.73;;;5.80;97.40;;;;;;4977898;28;20666;-87
2023/12/12 04:13:02;;;;;;;110.93;39.10;;;5.80;97.40;;;;;;4977530;28;20173;-87
2023/12/12 04:15:27;;;;;;;175.87;43.47;;;5.80;97.40;;;;;;4994918;28;20185;-87
2023/12/12 04:17:53;;;;;;;176.33;41.47;;;5.70;97.30;;;;;;4977395;28;20189;-87
2023/12/12 04:20:18;;;;;;;437.70;48.80;;;5.70;97.40;;;;;;4995306;28;20190;-87
2023/12/12 04:22:44;;;;;;;414.60;48.87;;;5.80;97.40;;;;;;4995591;28;20178;-87
2023/12/12 04:25:12;;;;;;;211.37;44.00;;;5.80;97.40;;;;;;4995514;28;20650;-87
2023/12/12 04:27:38;;;;;;;82.97;40.30;;;5.80;97.40;;;;;;4977553;28;20204;-87
2023/12/12 04:30:05;;;;;;;140.40;40.03;;;5.80;97.30;;;;;;4977206;28;20194;-87
2023/12/12 04:32:34;;;;;;;171.63;44.33;;;5.80;97.30;;;;;;4977455;28;20254;-87
2023/12/12 04:35:00;;;;;;;210.33;44.93;;;5.70;97.30;;;;;;4977985;28;20186;-87
2023/12/12 04:37:26;;;;;;;83.57;40.10;;;5.70;97.30;;;;;;4995297;28;20174;-87
2023/12/12 04:39:51;;;;;;;133.97;42.90;;;5.80;97.30;;;;;;4977279;28;20634;-87
2023/12/12 04:42:17;;;;;;;188.37;42.97;;;5.70;97.30;;;;;;4977732;28;20175;-87
2023/12/12 04:44:43;;;;;;;295.83;48.50;;;5.70;97.30;;;;;;4993898;28;20346;-87
2023/12/12 04:47:08;;;;;;;197.80;44.17;;;5.70;97.30;;;;;;4977310;28;20236;-87
2023/12/12 04:49:34;;;;;;;82.23;30.37;;;5.70;97.30;;;;;;4977101;28;20336;-87
2023/12/12 04:52:01;;;;;;;231.27;34.90;;;5.80;97.30;;;;;;4993961;28;20171;-87
2023/12/12 04:54:27;;;;;;;244.40;46.70;;;5.80;97.30;;;;;;4977431;28;20189;-87
2023/12/12 04:56:52;;;;;;;210.30;45.53;;;5.70;97.30;;;;;;4977498;28;20195;-87
2023/12/12 04:59:18;;;;;;;156.60;45.47;;;5.70;97.30;;;;;;4994865;28;20198;-86
2023/12/12 05:01:43;;;;;;;79.43;31.00;;;5.70;97.30;;;;;;4976992;28;20213;-86
2023/12/12 05:04:09;;;;;;;229.50;36.30;;;5.80;97.30;;;;;;4976955;28;20184;-87
2023/12/12 05:06:34;;;;;;;220.00;44.63;;;5.80;97.30;;;;;;4977924;28;20204;-87
2023/12/12 05:09:00;;;;;;;248.67;47.13;;;5.80;97.30;;;;;;4977830;28;20210;-87
2023/12/12 05:11:26;;;;;;;218.80;46.77;;;5.80;97.30;;;;;;4994856;28;20170;-87
2023/12/12 05:13:51;;;;;;;204.10;37.90;;;5.80;97.30;;;;;;4994673;28;20174;-87
2023/12/12 05:16:17;;;;;;;360.33;41.57;;;5.70;97.30;;;;;;4994914;28;20178;-87
2023/12/12 05:18:42;;;;;;;344.33;50.77;;;5.60;97.30;;;;;;4978020;28;20297;-87
2023/12/12 05:21:08;;;;;;;252.60;50.47;;;5.50;97.30;;;;;;4995827;28;20379;-87
2023/12/12 05:23:34;;;;;;;334.87;45.90;;;5.50;97.30;;;;;;4978592;28;20214;-86
2023/12/12 05:25:59;;;;;;;384.83;45.17;;;5.60;97.30;;;;;;4978319;28;20182;-87
2023/12/12 05:28:25;;;;;;;344.80;42.80;;;5.50;97.30;;;;;;4994465;28;20299;-87
2023/12/12 05:30:50;;;;;;;305.43;45.17;;;5.50;97.30;;;;;;4999674;28;20178;-87
2023/12/12 05:33:16;;;;;;;343.27;44.80;;;5.50;97.30;;;;;;4982002;28;20185;-87
2023/12/12 05:35:41;;;;;;;278.97;41.80;;;5.60;97.40;;;;;;4981722;28;20178;-87
2023/12/12 05:38:07;;;;;;;152.97;40.57;;;5.60;97.40;;;;;;4999100;28;20256;-88
2023/12/12 05:40:33;;;;;;;237.77;38.73;;;5.60;97.30;;;;;;4998705;28;20200;-87
2023/12/12 05:42:59;;;;;;;161.90;36.27;;;5.60;97.40;;;;;;4980928;28;20174;-87
2023/12/12 05:45:25;;;;;;;246.73;37.43;;;5.60;97.40;;;;;;4981411;28;20240;-87
2023/12/12 05:47:50;;;;;;;339.53;42.67;;;5.60;97.40;;;;;;4980491;28;20638;-86
2023/12/12 05:50:16;;;;;;;159.93;36.93;;;5.60;97.40;;;;;;4980531;28;20201;-87
2023/12/12 05:52:41;;;;;;;202.90;38.27;;;5.60;97.40;;;;;;4979916;28;20548;-87
2023/12/12 05:55:08;;;;;;;119.73;34.93;;;5.70;97.40;;;;;;4997584;28;20185;-87
2023/12/12 05:57:35;;;;;;;134.93;47.13;;;5.70;97.40;;;;;;4979775;28;20280;-87
2023/12/12 06:00:01;;;;;;;226.80;50.47;;;5.70;97.40;;;;;;4997045;28;20625;-86
2023/12/12 06:02:26;;;;;;;211.27;46.17;;;5.70;97.40;;;;;;4979587;28;20182;-86
2023/12/12 06:04:52;;;;;;;476.20;50.93;;;5.70;97.40;;;;;;4979783;28;20591;-87
2023/12/12 06:07:18;;;;;;;423.80;51.03;;;5.80;97.40;;;;;;4979430;28;20229;-87
2023/12/12 06:09:44;;;;;;;438.00;51.33;;;5.80;97.40;;;;;;4979459;28;20209;-87
2023/12/12 06:12:09;;;;;;;357.23;45.37;;;5.80;97.40;;;;;;4979641;28;20285;-87
2023/12/12 06:14:35;;;;;;;313.60;48.20;;;5.80;97.40;;;;;;4996976;28;20178;-87
2023/12/12 06:17:02;;;;;;;237.80;44.53;;;5.80;97.40;;;;;;4979541;28;20178;-87
2023/12/12 06:19:28;;;;;;;170.60;41.60;;;5.80;97.40;;;;;;4997621;28;20674;-87
2023/12/12 06:21:53;;;;;;;201.43;41.77;;;5.80;97.40;;;;;;4979959;28;20197;-87
2023/12/12 06:24:19;;;;;;;347.67;48.07;;;5.70;97.40;;;;;;4996977;28;20178;-87
2023/12/12 06:26:45;;;;;;;94.07;40.90;;;5.70;97.30;;;;;;4979626;28;20213;-87
2023/12/12 06:29:12;;;;;;;92.90;39.47;;;5.80;97.40;;;;;;4979046;28;20564;-86
2023/12/12 06:31:38;;;;;;;117.00;42.83;;;5.80;97.40;;;;;;4995344;28;20536;-87
2023/12/12 06:34:04;;;;;;;88.50;40.63;;;5.70;97.40;;;;;;4996524;28;20174;-85
2023/12/12 06:36:30;;;;;;;84.47;40.57;;;5.70;97.40;;;;;;4996608;28;20212;-87
2023/12/12 06:38:55;;;;;;;199.30;36.67;;;5.80;97.40;;;;;;4978894;28;20284;-87
2023/12/12 06:41:21;;;;;;;248.77;37.97;;;5.80;97.40;;;;;;4978123;28;20182;-87
2023/12/12 06:43:46;;;;;;;99.10;36.90;;;5.80;97.40;;;;;;4997190;28;20650;-87
2023/12/12 06:46:12;;;;;;;94.17;45.07;;;5.80;97.40;;;;;;4979660;28;20185;-86
2023/12/12 06:48:38;;;;;;;153.20;48.53;;;5.80;97.40;;;;;;4979441;28;20217;-87
2023/12/12 06:51:04;;;;;;;465.73;50.00;;;5.80;97.40;;;;;;4996685;28;20224;-87
2023/12/12 06:53:30;;;;;;;75.63;34.93;;;5.80;97.40;;;;;;4995765;28;20214;-87
2023/12/12 06:55:56;;;;;;;123.00;43.60;;;5.80;97.30;;;;;;4996799;28;20573;-86
2023/12/12 06:58:22;;;;;;;79.17;45.43;;;5.90;97.40;;;;;;4979364;28;20273;-86
2023/12/12 07:00:48;;;;;;;185.63;50.37;;;5.80;97.30;;;;;;4979501;28;20770;-86
2023/12/12 07:03:13;;;;;;;137.10;37.10;;;5.80;97.40;;;;;;4996271;28;20189;-86
2023/12/12 07:05:39;;;;;;;144.73;37.30;;;5.80;97.30;;;;;;4994714;28;20386;-86
2023/12/12 07:08:05;;;;;;;81.63;35.83;;;5.80;97.30;;;;;;4994371;28;20686;-87
2023/12/12 07:10:31;;;;;;;109.83;36.17;;;5.80;97.30;;;;;;4978458;28;20208;-87
2023/12/12 07:12:57;;;;;;;87.37;35.43;;;5.80;97.40;;;;;;4978434;28;20647;-86
2023/12/12 07:15:25;;;;;;;83.90;35.20;;;5.80;97.40;;;;;;4978240;28;20196;-86
2023/12/12 07:17:51;;;;;;;95.97;36.67;;;5.90;97.40;;;;;;4978183;28;20182;-87
2023/12/12 07:20:16;;;;;;;450.60;45.60;;;5.80;97.40;;;;;;4978058;28;20230;-87
2023/12/12 07:22:43;;;;;;;91.23;36.60;;;5.80;97.40;;;;;;4995709;28;20178;-87
2023/12/12 07:25:08;;;;;;;201.27;40.97;;;5.80;97.40;;;;;;4994409;28;20236;-86
2023/12/12 07:27:34;;;;;;;408.67;44.13;;;5.80;97.30;;;;;;4977915;28;20198;-86
2023/12/12 07:30:00;;;;;;;400.67;46.30;;;5.80;97.30;;;;;;4978096;28;20186;-86
2023/12/12 07:32:26;;;;;;;286.20;45.83;;;5.60;97.30;;;;;;4994116;28;20174;-86
2023/12/12 07:34:53;;;;;;;119.77;39.43;;;5.70;97.30;;;;;;4995474;28;20253;-86
2023/12/12 07:37:19;;;;;;;119.90;49.17;;;5.70;97.40;;;;;;4977889;28;20265;-86
2023/12/12 07:39:44;;;;;;;208.73;50.90;;;5.70;97.40;;;;;;4995159;28;20221;-86
2023/12/12 07:42:10;;;;;;;108.67;46.30;;;5.80;97.40;;;;;;4977773;28;20181;-86
2023/12/12 07:44:35;;;;;;;91.13;44.33;;;5.80;97.30;;;;;;4977832;28;20174;-86
2023/12/12 07:47:01;;;;;;;78.23;44.23;;;5.80;97.30;;;;;;4977591;28;20206;-86
2023/12/12 07:49:30;;;;;;;89.33;45.03;;;5.80;97.40;;;;;;4995135;28;20666;-86
2023/12/12 07:51:56;;;;;;;561.93;60.00;;;5.80;97.40;;;;;;4993822;28;20231;-87
2023/12/12 07:54:22;;;;;;;594.83;60.37;;;5.80;97.40;;;;;;4995985;28;20224;-87
2023/12/12 07:56:47;;;;;;;537.90;58.10;;;5.80;97.40;;;;;;4977788;28;20623;-87
2023/12/12 07:59:13;;;;;;;492.60;53.83;;;5.70;97.30;;;;;;4978016;28;20210;-87
2023/12/12 08:01:39;;;;;;;604.37;63.67;;;5.70;97.30;;;;;;4995213;28;20598;-86
2023/12/12 08:04:08;;;;;;;723.90;73.70;;;5.70;97.30;;;;;;4994821;28;20170;-86
2023/12/12 08:06:33;;;;;;;614.97;64.73;;;5.70;97.30;;;;;;4977168;28;20662;-86
2023/12/12 08:08:59;;;;;;;328.43;49.27;;;5.70;97.30;;;;;;4977200;28;20217;-86
2023/12/12 08:11:27;;;;;;;275.20;51.03;;;5.70;97.30;;;;;;4995376;28;20181;-86
2023/12/12 08:13:56;;;;;;;285.50;51.13;;;5.70;97.30;;;;;;4978097;28;20264;-87
2023/12/12 08:16:23;;;;;;;277.67;46.93;;;5.70;97.30;;;;;;4994654;28;20661;-87
2023/12/12 08:18:49;;;;;;;218.90;46.47;;;5.60;97.20;;;;;;4977873;28;20332;-87
2023/12/12 08:21:15;;;;;;;223.77;48.20;;;5.60;97.30;;;;;;4995388;28;20546;-87
2023/12/12 08:23:42;;;;;;;447.03;48.50;;;5.60;97.30;;;;;;4977842;28;20181;-86
2023/12/12 08:26:10;;;;;;;240.70;43.37;;;5.60;97.30;;;;;;4977696;28;20228;-87
2023/12/12 08:28:35;;;;;;;298.93;52.13;;;5.50;97.30;;;;;;4994358;28;20289;-87
2023/12/12 08:31:01;;;;;;;157.77;45.33;;;5.60;97.30;;;;;;4976911;28;20284;-88
2023/12/12 08:33:27;;;;;;;144.10;41.90;;;5.60;97.30;;;;;;4993235;28;20192;-87
2023/12/12 08:35:52;;;;;;;119.63;32.97;;;5.70;97.30;;;;;;4977750;28;20518;-86
2023/12/12 08:38:18;;;;;;;101.47;30.57;;;5.60;97.30;;;;;;4977179;28;20201;-88
2023/12/12 08:40:43;;;;;;;126.57;38.97;;;5.70;97.30;;;;;;4977367;28;20282;-87
2023/12/12 08:43:09;;;;;;;191.33;41.73;;;5.70;97.40;;;;;;4994865;28;20182;-87
2023/12/12 08:45:35;;;;;;;160.30;41.17;;;5.80;97.30;;;;;;4977296;28;20178;-87
2023/12/12 08:48:00;;;;;;;134.60;34.27;;;5.70;97.30;;;;;;4995088;28;20328;-87
2023/12/12 08:50:26;;;;;;;162.73;35.03;;;5.70;97.30;;;;;;4977236;28;20203;-87
2023/12/12 08:52:51;;;;;;;126.43;34.20;;;5.70;97.30;;;;;;4994546;28;20646;-86
2023/12/12 08:55:17;;;;;;;132.13;34.30;;;5.70;97.30;;;;;;4976858;28;20265;-87
2023/12/12 08:57:43;;;;;;;115.80;31.20;;;5.80;97.30;;;;;;4994862;28;20184;-87
2023/12/12 09:00:12;;;;;;;120.90;31.00;;;5.80;97.40;;;;;;4976918;28;20201;-87
2023/12/12 09:02:41;;;;;;;86.77;28.10;;;5.80;97.30;;;;;;4994497;28;20677;-87
2023/12/12 09:05:07;;;;;;;75.83;28.40;;;5.90;97.40;;;;;;4993977;28;20197;-86
2023/12/12 09:07:34;;;;;;;87.83;28.60;;;5.90;97.40;;;;;;4993757;28;20206;-87
2023/12/12 09:10:02;;;;;;;77.37;26.70;;;5.90;97.30;;;;;;4976652;28;20323;-86
2023/12/12 09:12:28;;;;;;;81.07;26.63;;;6.00;97.40;;;;;;4993671;28;20236;-88
2023/12/12 09:14:53;;;;;;;93.90;27.30;;;5.90;97.30;;;;;;4993627;28;20181;-89
2023/12/12 09:17:19;;;;;;;68.33;25.97;;;5.90;97.30;;;;;;4976552;28;20186;-88
2023/12/12 09:19:44;;;;;;;70.13;25.10;;;5.90;97.30;;;;;;4976798;28;20585;-86
2023/12/12 09:22:10;;;;;;;72.63;32.57;;;5.90;97.30;;;;;;4994305;28;20185;-86
2023/12/12 09:24:35;;;;;;;76.93;31.97;;;5.90;97.30;;;;;;4976473;28;20200;-90
2023/12/12 09:27:01;;;;;;;80.63;32.83;;;5.90;97.30;;;;;;4977219;28;20226;-87
2023/12/12 09:29:26;;;;;;;69.07;29.53;;;5.80;97.20;;;;;;4977033;28;20198;-86
2023/12/12 09:31:52;;;;;;;61.10;29.50;;;5.90;97.30;;;;;;4993877;28;20646;-86
2023/12/12 09:34:17;;;;;;;56.67;27.77;;;5.80;97.20;;;;;;4993648;28;20654;-86
2023/12/12 09:36:43;;;;;;;56.27;28.43;;;5.80;97.20;;;;;;4976352;28;20228;-86
2023/12/12 09:39:10;;;;;;;50.73;26.90;;;5.80;97.20;;;;;;4993651;28;20190;-87
2023/12/12 09:41:36;;;;;;;50.27;26.90;;;5.90;97.20;;;;;;4976699;28;20175;-86
2023/12/12 09:44:02;;;;;;;53.30;28.23;;;6.00;97.20;;;;;;4992559;28;20170;-86
2023/12/12 09:46:29;;;;;;;56.80;29.67;;;5.90;97.20;;;;;;4992521;28;20265;-86
2023/12/12 09:48:56;;;;;;;64.93;30.50;;;5.90;97.10;;;;;;4994165;28;20220;-87
2023/12/12 09:51:24;;;;;;;64.63;29.97;;;6.00;97.10;;;;;;4994295;28;20170;-87
2023/12/12 09:53:51;;;;;;;62.90;30.87;;;6.00;97.10;;;;;;4994543;28;20177;-86
2023/12/12 09:56:18;;;;;;;58.80;28.20;;;6.00;97.10;;;;;;4993693;28;20228;-86
2023/12/12 09:58:50;;;;;;;59.23;28.13;;;6.00;97.00;;;;;;4976236;28;20202;-86
2023/12/12 10:01:16;;;;;;;52.93;22.10;;;6.00;97.00;;;;;;4993509;28;20209;-87
2023/12/12 10:03:43;;;;;;;53.97;22.53;;;6.00;96.90;;;;;;4993595;28;20675;-87
2023/12/12 10:06:10;;;;;;;53.50;27.30;;;6.00;96.90;;;;;;4993786;28;20664;-86
2023/12/12 10:08:37;;;;;;;53.97;26.93;;;6.00;96.90;;;;;;4993133;28;20206;-86
2023/12/12 10:11:05;;;;;;;52.17;27.77;;;6.10;96.90;;;;;;4994017;28;20253;-87
2023/12/12 10:13:50;;;;;;;49.57;19.23;;;6.10;96.90;;;;;;4992393;28;20212;-87
2023/12/12 10:16:16;;;;;;;41.13;19.07;;;6.10;96.90;;;;;;4996228;28;20618;-87
2023/12/12 10:18:46;;;;;;;50.73;24.60;;;6.10;96.80;;;;;;4979396;28;20244;-87
2023/12/12 10:21:22;;;;;;;49.00;25.03;;;6.20;96.80;;;;;;4996951;28;20178;-87
2023/12/12 10:23:51;;;;;;;45.77;20.20;;;6.10;96.70;;;;;;4979653;28;20188;-87
2023/12/12 10:26:26;;;;;;;52.07;19.90;;;6.10;96.70;;;;;;4980989;28;20201;-87
2023/12/12 10:28:54;;;;;;;45.17;20.93;;;6.00;96.70;;;;;;4996386;28;20212;-88
2023/12/12 10:31:20;;;;;;;52.90;25.27;;;6.10;96.60;;;;;;4996705;28;20170;-88
2023/12/12 10:33:46;;;;;;;52.43;25.87;;;6.10;96.60;;;;;;4996442;28;20305;-88
2023/12/12 10:36:12;;;;;;;46.57;19.63;;;6.00;96.60;;;;;;4979081;28;20181;-87
2023/12/12 10:38:38;;;;;;;42.23;18.30;;;6.10;96.60;;;;;;4996481;28;20198;-87
2023/12/12 10:41:11;;;;;;;41.17;19.43;;;6.10;96.60;;;;;;4978916;28;20260;-87
2023/12/12 10:43:41;;;;;;;46.03;19.17;;;6.00;96.50;;;;;;4978840;28;20228;-87
2023/12/12 10:46:11;;;;;;;45.87;21.63;;;6.00;96.50;;;;;;4996261;28;20534;-88
2023/12/12 10:48:45;;;;;;;48.73;20.47;;;6.00;96.50;;;;;;4978637;28;20693;-87
2023/12/12 10:51:15;;;;;;;44.60;19.47;;;6.00;96.50;;;;;;4978859;28;20166;-86
2023/12/12 10:53:45;;;;;;;44.53;19.40;;;6.10;96.50;;;;;;4996130;28;20225;-87
2023/12/12 10:56:12;;;;;;;50.17;20.63;;;6.00;96.40;;;;;;4996054;28;20174;-88
2023/12/12 10:58:41;;;;;;;52.87;20.50;;;6.00;96.40;;;;;;4978501;28;20281;-88
2023/12/12 11:01:09;;;;;;;50.23;19.73;;;6.00;96.40;;;;;;4978475;28;20209;-87
2023/12/12 11:03:36;;;;;;;46.10;19.93;;;6.10;96.40;;;;;;4978449;28;20182;-87
2023/12/12 11:06:03;;;;;;;48.47;20.07;;;6.20;96.50;;;;;;4978456;28;20209;-87
2023/12/12 11:08:30;;;;;;;44.77;20.17;;;6.30;96.40;;;;;;4978763;28;20241;-87
2023/12/12 11:10:56;;;;;;;55.87;25.83;;;6.20;96.40;;;;;;4996137;28;20178;-87
2023/12/12 11:13:34;;;;;;;52.47;26.10;;;6.30;96.40;;;;;;4978319;28;20618;-87
2023/12/12 11:16:03;;;;;;;52.07;24.43;;;6.30;96.40;;;;;;4978480;28;20189;-88
2023/12/12 11:18:29;;;;;;;54.77;25.90;;;6.30;96.40;;;;;;4978144;28;20191;-87
2023/12/12 11:20:55;;;;;;;54.07;25.40;;;6.30;96.30;;;;;;4978251;28;20265;-87
2023/12/12 11:23:42;;;;;;;53.57;26.03;;;6.30;96.30;;;;;;4995773;28;20201;-87
2023/12/12 11:26:10;;;;;;;51.77;26.53;;;6.30;96.30;;;;;;4977607;28;20170;-88
2023/12/12 11:28:38;;;;;;;54.37;27.17;;;6.30;96.30;;;;;;4995126;28;20218;-87
2023/12/12 11:31:04;;;;;;;52.73;25.70;;;6.30;96.30;;;;;;4994169;28;20654;-87
2023/12/12 11:33:30;;;;;;;60.27;26.70;;;6.30;96.30;;;;;;4995466;28;20170;-87
2023/12/12 11:35:56;;;;;;;56.00;27.40;;;6.30;96.30;;;;;;4977879;28;20549;-88
2023/12/12 11:38:33;;;;;;;48.20;24.73;;;6.30;96.30;;;;;;4995252;28;20174;-88
2023/12/12 11:41:10;;;;;;;55.27;26.30;;;6.30;96.30;;;;;;4977735;28;20185;-88
2023/12/12 11:43:36;;;;;;;55.10;26.30;;;6.30;96.30;;;;;;4977891;28;20646;-87
2023/12/12 11:46:21;;;;;;;48.77;25.33;;;6.30;96.30;;;;;;4978058;28;20178;-87
2023/12/12 11:48:47;;;;;;;55.67;27.20;;;6.30;96.30;;;;;;4977814;28;20264;-87
2023/12/12 11:51:34;;;;;;;50.47;25.50;;;6.30;96.30;;;;;;4995305;28;20563;-87
2023/12/12 11:54:09;;;;;;;45.80;25.47;;;6.30;96.30;;;;;;4977749;28;20671;-87
2023/12/12 11:56:35;;;;;;;48.90;24.80;;;6.30;96.30;;;;;;4977794;28;20204;-87
2023/12/12 11:59:03;;;;;;;46.57;21.17;;;6.30;96.30;;;;;;4977623;28;20198;-87
2023/12/12 12:01:29;;;;;;;46.67;19.77;;;6.30;96.30;;;;;;4994822;28;20174;-86
2023/12/12 12:03:55;;;;;;;39.07;19.20;;;6.40;96.30;;;;;;4978088;28;20219;-86
2023/12/12 12:06:20;;;;;;;35.73;18.17;;;6.40;96.30;;;;;;4994822;28;20170;-87
2023/12/12 12:08:47;;;;;;;32.00;18.03;;;6.40;96.20;;;;;;4992964;28;20260;-86
2023/12/12 12:11:13;;;;;;;36.40;17.73;;;6.30;96.20;;;;;;4994841;28;20649;-86
2023/12/12 12:13:42;;;;;;;36.13;18.17;;;6.40;96.20;;;;;;4995260;28;20178;-87
2023/12/12 12:16:09;;;;;;;33.90;20.13;;;6.50;96.20;;;;;;4994770;28;20224;-87
2023/12/12 12:18:35;;;;;;;34.47;19.63;;;6.50;96.10;;;;;;4995171;28;20185;-86
2023/12/12 12:21:03;;;;;;;32.73;18.53;;;6.40;96.00;;;;;;4977472;28;20178;-86
2023/12/12 12:23:30;;;;;;;32.53;17.40;;;6.50;96.00;;;;;;4977002;28;20232;-87
2023/12/12 12:25:59;;;;;;;32.03;17.20;;;6.50;96.00;;;;;;4976882;28;20184;-87
2023/12/12 12:28:35;;;;;;;34.13;17.23;;;6.50;96.00;;;;;;4994394;28;20192;-87